sensor_id;sensor_type;location;lat;lon;timestamp;P1;durP1;ratioP1;P2;durP2;ratioP2
74059;SDS011;62414;53.436;8.828;2023-06-10T00:00:52;12.37;;;3.53;;
74059;SDS011;62414;53.436;8.828;2023-06-10T00:03:17;11.15;;;4.28;;
74059;SDS011;62414;53.436;8.828;2023-06-10T00:05:44;11.17;;;3.83;;
74059;SDS011;62414;53.436;8.828;2023-06-10T00:08:10;12.63;;;3.92;;
74059;SDS011;62414;53.436;8.828;2023-06-10T00:10:35;13.03;;;4.33;;
74059;SDS011;62414;53.436;8.828;2023-06-10T00:13:02;10.85;;;4.30;;
74059;SDS011;62414;53.436;8.828;2023-06-10T00:15:27;12.35;;;4.13;;
74059;SDS011;62414;53.436;8.828;2023-06-10T00:17:53;10.33;;;3.90;;
74059;SDS011;62414;53.436;8.828;2023-06-10T00:20:18;12.43;;;4.20;;
74059;SDS011;62414;53.436;8.828;2023-06-10T00:22:45;10.70;;;4.17;;
74059;SDS011;62414;53.436;8.828;2023-06-10T00:25:11;12.40;;;4.45;;
74059;SDS011;62414;53.436;8.828;2023-06-10T00:27:36;16.10;;;4.90;;
74059;SDS011;62414;53.436;8.828;2023-06-10T00:30:02;14.37;;;4.50;;
74059;SDS011;62414;53.436;8.828;2023-06-10T00:32:29;14.57;;;4.63;;
74059;SDS011;62414;53.436;8.828;2023-06-10T00:34:55;13.50;;;4.43;;
74059;SDS011;62414;53.436;8.828;2023-06-10T00:37:20;9.82;;;4.63;;
74059;SDS011;62414;53.436;8.828;2023-06-10T00:39:47;10.20;;;4.47;;
74059;SDS011;62414;53.436;8.828;2023-06-10T00:42:13;16.35;;;4.93;;
74059;SDS011;62414;53.436;8.828;2023-06-10T00:44:38;12.13;;;4.73;;
74059;SDS011;62414;53.436;8.828;2023-06-10T00:47:04;13.53;;;5.00;;
74059;SDS011;62414;53.436;8.828;2023-06-10T00:49:30;14.73;;;5.00;;
74059;SDS011;62414;53.436;8.828;2023-06-10T00:51:56;14.00;;;5.10;;
74059;SDS011;62414;53.436;8.828;2023-06-10T00:54:21;13.90;;;5.00;;
74059;SDS011;62414;53.436;8.828;2023-06-10T00:56:48;16.73;;;4.90;;
74059;SDS011;62414;53.436;8.828;2023-06-10T00:59:14;11.65;;;4.90;;
74059;SDS011;62414;53.436;8.828;2023-06-10T01:01:41;12.98;;;4.93;;
74059;SDS011;62414;53.436;8.828;2023-06-10T01:04:07;13.57;;;4.50;;
74059;SDS011;62414;53.436;8.828;2023-06-10T01:06:34;14.00;;;5.30;;
74059;SDS011;62414;53.436;8.828;2023-06-10T01:09:04;15.57;;;5.07;;
74059;SDS011;62414;53.436;8.828;2023-06-10T01:11:36;13.23;;;4.90;;
74059;SDS011;62414;53.436;8.828;2023-06-10T01:14:06;13.77;;;5.40;;
74059;SDS011;62414;53.436;8.828;2023-06-10T01:16:32;13.95;;;5.78;;
74059;SDS011;62414;53.436;8.828;2023-06-10T01:18:58;14.47;;;4.93;;
74059;SDS011;62414;53.436;8.828;2023-06-10T01:21:25;16.80;;;5.20;;
74059;SDS011;62414;53.436;8.828;2023-06-10T01:23:51;14.48;;;5.50;;
74059;SDS011;62414;53.436;8.828;2023-06-10T01:26:17;15.52;;;5.45;;
74059;SDS011;62414;53.436;8.828;2023-06-10T01:28:47;14.35;;;6.20;;
74059;SDS011;62414;53.436;8.828;2023-06-10T01:31:16;14.63;;;5.77;;
74059;SDS011;62414;53.436;8.828;2023-06-10T01:33:45;15.93;;;5.78;;
74059;SDS011;62414;53.436;8.828;2023-06-10T01:36:12;17.58;;;6.05;;
74059;SDS011;62414;53.436;8.828;2023-06-10T01:38:40;13.73;;;5.68;;
74059;SDS011;62414;53.436;8.828;2023-06-10T01:41:08;16.98;;;5.80;;
74059;SDS011;62414;53.436;8.828;2023-06-10T01:43:35;16.20;;;5.90;;
74059;SDS011;62414;53.436;8.828;2023-06-10T01:46:02;13.25;;;5.50;;
74059;SDS011;62414;53.436;8.828;2023-06-10T01:48:29;14.23;;;5.95;;
74059;SDS011;62414;53.436;8.828;2023-06-10T01:50:54;13.70;;;5.90;;
74059;SDS011;62414;53.436;8.828;2023-06-10T01:53:19;16.60;;;5.80;;
74059;SDS011;62414;53.436;8.828;2023-06-10T01:55:47;16.37;;;6.03;;
74059;SDS011;62414;53.436;8.828;2023-06-10T01:58:12;14.02;;;5.90;;
74059;SDS011;62414;53.436;8.828;2023-06-10T02:00:38;16.52;;;5.80;;
74059;SDS011;62414;53.436;8.828;2023-06-10T02:03:04;12.73;;;5.57;;
74059;SDS011;62414;53.436;8.828;2023-06-10T02:05:29;15.57;;;6.03;;
74059;SDS011;62414;53.436;8.828;2023-06-10T02:07:55;15.85;;;6.05;;
74059;SDS011;62414;53.436;8.828;2023-06-10T02:10:21;15.93;;;5.97;;
74059;SDS011;62414;53.436;8.828;2023-06-10T02:12:47;14.02;;;5.60;;
74059;SDS011;62414;53.436;8.828;2023-06-10T02:15:13;16.10;;;5.70;;
74059;SDS011;62414;53.436;8.828;2023-06-10T02:17:38;14.70;;;6.10;;
74059;SDS011;62414;53.436;8.828;2023-06-10T02:20:04;10.90;;;5.40;;
74059;SDS011;62414;53.436;8.828;2023-06-10T02:22:30;14.98;;;5.57;;
74059;SDS011;62414;53.436;8.828;2023-06-10T02:24:56;11.83;;;5.00;;
74059;SDS011;62414;53.436;8.828;2023-06-10T02:27:21;14.23;;;5.27;;
74059;SDS011;62414;53.436;8.828;2023-06-10T02:29:48;13.07;;;5.33;;
74059;SDS011;62414;53.436;8.828;2023-06-10T02:32:13;13.80;;;5.32;;
74059;SDS011;62414;53.436;8.828;2023-06-10T02:34:41;14.57;;;4.80;;
74059;SDS011;62414;53.436;8.828;2023-06-10T02:37:06;11.52;;;4.70;;
74059;SDS011;62414;53.436;8.828;2023-06-10T02:39:32;11.67;;;4.70;;
74059;SDS011;62414;53.436;8.828;2023-06-10T02:41:58;12.23;;;5.10;;
74059;SDS011;62414;53.436;8.828;2023-06-10T02:44:24;14.48;;;4.75;;
74059;SDS011;62414;53.436;8.828;2023-06-10T02:46:51;11.37;;;4.57;;
74059;SDS011;62414;53.436;8.828;2023-06-10T02:49:16;11.10;;;4.72;;
74059;SDS011;62414;53.436;8.828;2023-06-10T02:51:44;12.82;;;4.60;;
74059;SDS011;62414;53.436;8.828;2023-06-10T02:54:09;11.73;;;4.37;;
74059;SDS011;62414;53.436;8.828;2023-06-10T02:56:35;9.80;;;4.10;;
74059;SDS011;62414;53.436;8.828;2023-06-10T02:59:02;11.50;;;4.07;;
74059;SDS011;62414;53.436;8.828;2023-06-10T03:01:30;11.18;;;4.30;;
74059;SDS011;62414;53.436;8.828;2023-06-10T03:04:02;11.00;;;3.80;;
74059;SDS011;62414;53.436;8.828;2023-06-10T03:06:28;10.35;;;4.03;;
74059;SDS011;62414;53.436;8.828;2023-06-10T03:09:02;10.82;;;4.10;;
74059;SDS011;62414;53.436;8.828;2023-06-10T03:11:28;13.23;;;3.93;;
74059;SDS011;62414;53.436;8.828;2023-06-10T03:13:54;12.27;;;3.85;;
74059;SDS011;62414;53.436;8.828;2023-06-10T03:16:20;12.30;;;3.92;;
74059;SDS011;62414;53.436;8.828;2023-06-10T03:18:46;8.63;;;3.67;;
74059;SDS011;62414;53.436;8.828;2023-06-10T03:21:13;10.43;;;3.92;;
74059;SDS011;62414;53.436;8.828;2023-06-10T03:23:39;9.63;;;3.63;;
74059;SDS011;62414;53.436;8.828;2023-06-10T03:26:05;15.18;;;4.15;;
74059;SDS011;62414;53.436;8.828;2023-06-10T03:28:32;12.10;;;3.60;;
74059;SDS011;62414;53.436;8.828;2023-06-10T03:30:57;17.57;;;4.40;;
74059;SDS011;62414;53.436;8.828;2023-06-10T03:33:25;9.70;;;3.70;;
74059;SDS011;62414;53.436;8.828;2023-06-10T03:35:51;12.18;;;3.53;;
74059;SDS011;62414;53.436;8.828;2023-06-10T03:38:18;9.53;;;3.30;;
74059;SDS011;62414;53.436;8.828;2023-06-10T03:40:44;12.73;;;3.50;;
74059;SDS011;62414;53.436;8.828;2023-06-10T03:43:10;10.60;;;3.78;;
74059;SDS011;62414;53.436;8.828;2023-06-10T03:45:36;10.40;;;3.50;;
74059;SDS011;62414;53.436;8.828;2023-06-10T03:48:01;12.63;;;3.37;;
74059;SDS011;62414;53.436;8.828;2023-06-10T03:50:36;11.73;;;3.60;;
74059;SDS011;62414;53.436;8.828;2023-06-10T03:53:02;9.30;;;3.13;;
74059;SDS011;62414;53.436;8.828;2023-06-10T03:55:29;9.70;;;3.33;;
74059;SDS011;62414;53.436;8.828;2023-06-10T03:57:57;9.50;;;3.00;;
74059;SDS011;62414;53.436;8.828;2023-06-10T04:00:22;8.97;;;3.03;;
74059;SDS011;62414;53.436;8.828;2023-06-10T04:02:47;11.53;;;3.70;;
74059;SDS011;62414;53.436;8.828;2023-06-10T04:05:20;9.20;;;3.50;;
74059;SDS011;62414;53.436;8.828;2023-06-10T04:07:46;9.60;;;3.57;;
74059;SDS011;62414;53.436;8.828;2023-06-10T04:10:11;9.33;;;3.80;;
74059;SDS011;62414;53.436;8.828;2023-06-10T04:12:38;10.60;;;4.15;;
74059;SDS011;62414;53.436;8.828;2023-06-10T04:15:04;14.15;;;4.07;;
74059;SDS011;62414;53.436;8.828;2023-06-10T04:17:30;14.73;;;4.10;;
74059;SDS011;62414;53.436;8.828;2023-06-10T04:19:55;9.98;;;4.05;;
74059;SDS011;62414;53.436;8.828;2023-06-10T04:22:21;12.23;;;4.20;;
74059;SDS011;62414;53.436;8.828;2023-06-10T04:24:47;12.20;;;4.15;;
74059;SDS011;62414;53.436;8.828;2023-06-10T04:27:12;15.50;;;4.63;;
74059;SDS011;62414;53.436;8.828;2023-06-10T04:29:39;11.30;;;4.17;;
74059;SDS011;62414;53.436;8.828;2023-06-10T04:32:06;13.30;;;4.47;;
74059;SDS011;62414;53.436;8.828;2023-06-10T04:34:32;11.48;;;4.68;;
74059;SDS011;62414;53.436;8.828;2023-06-10T04:36:58;10.90;;;4.40;;
74059;SDS011;62414;53.436;8.828;2023-06-10T04:39:23;8.47;;;4.03;;
74059;SDS011;62414;53.436;8.828;2023-06-10T04:41:49;14.27;;;5.00;;
74059;SDS011;62414;53.436;8.828;2023-06-10T04:44:14;10.00;;;4.40;;
74059;SDS011;62414;53.436;8.828;2023-06-10T04:46:42;13.18;;;4.50;;
74059;SDS011;62414;53.436;8.828;2023-06-10T04:49:08;9.87;;;4.00;;
74059;SDS011;62414;53.436;8.828;2023-06-10T04:51:34;12.40;;;4.18;;
74059;SDS011;62414;53.436;8.828;2023-06-10T04:54:00;12.03;;;4.20;;
74059;SDS011;62414;53.436;8.828;2023-06-10T04:56:25;10.30;;;3.65;;
74059;SDS011;62414;53.436;8.828;2023-06-10T04:58:51;11.43;;;3.80;;
74059;SDS011;62414;53.436;8.828;2023-06-10T05:01:16;9.57;;;3.40;;
74059;SDS011;62414;53.436;8.828;2023-06-10T05:03:43;10.47;;;3.77;;
74059;SDS011;62414;53.436;8.828;2023-06-10T05:06:08;12.10;;;3.30;;
74059;SDS011;62414;53.436;8.828;2023-06-10T05:08:34;9.25;;;3.38;;
74059;SDS011;62414;53.436;8.828;2023-06-10T05:10:59;9.33;;;3.17;;
74059;SDS011;62414;53.436;8.828;2023-06-10T05:13:25;9.60;;;3.03;;
74059;SDS011;62414;53.436;8.828;2023-06-10T05:15:50;7.97;;;2.60;;
74059;SDS011;62414;53.436;8.828;2023-06-10T05:18:15;9.57;;;2.85;;
74059;SDS011;62414;53.436;8.828;2023-06-10T05:20:42;9.80;;;3.20;;
74059;SDS011;62414;53.436;8.828;2023-06-10T05:23:08;10.60;;;2.90;;
74059;SDS011;62414;53.436;8.828;2023-06-10T05:25:33;8.60;;;3.20;;
74059;SDS011;62414;53.436;8.828;2023-06-10T05:27:59;10.17;;;2.50;;
74059;SDS011;62414;53.436;8.828;2023-06-10T05:30:24;10.02;;;3.03;;
74059;SDS011;62414;53.436;8.828;2023-06-10T05:32:50;9.87;;;2.73;;
74059;SDS011;62414;53.436;8.828;2023-06-10T05:35:15;12.77;;;2.97;;
74059;SDS011;62414;53.436;8.828;2023-06-10T05:37:42;11.30;;;2.80;;
74059;SDS011;62414;53.436;8.828;2023-06-10T05:40:08;14.98;;;2.70;;
74059;SDS011;62414;53.436;8.828;2023-06-10T05:42:34;7.37;;;2.30;;
74059;SDS011;62414;53.436;8.828;2023-06-10T05:44:59;9.45;;;3.05;;
74059;SDS011;62414;53.436;8.828;2023-06-10T05:47:25;8.30;;;2.37;;
74059;SDS011;62414;53.436;8.828;2023-06-10T05:49:50;7.47;;;2.07;;
74059;SDS011;62414;53.436;8.828;2023-06-10T05:52:16;10.20;;;2.50;;
74059;SDS011;62414;53.436;8.828;2023-06-10T05:54:42;8.73;;;2.40;;
74059;SDS011;62414;53.436;8.828;2023-06-10T05:57:08;7.50;;;2.40;;
74059;SDS011;62414;53.436;8.828;2023-06-10T05:59:33;10.20;;;2.20;;
74059;SDS011;62414;53.436;8.828;2023-06-10T06:01:59;8.70;;;2.30;;
74059;SDS011;62414;53.436;8.828;2023-06-10T06:04:24;7.90;;;2.30;;
74059;SDS011;62414;53.436;8.828;2023-06-10T06:06:50;9.87;;;2.27;;
74059;SDS011;62414;53.436;8.828;2023-06-10T06:09:15;10.57;;;2.80;;
74059;SDS011;62414;53.436;8.828;2023-06-10T06:11:42;7.73;;;2.30;;
74059;SDS011;62414;53.436;8.828;2023-06-10T06:14:07;6.75;;;2.00;;
74059;SDS011;62414;53.436;8.828;2023-06-10T06:16:33;10.33;;;2.53;;
74059;SDS011;62414;53.436;8.828;2023-06-10T06:18:58;7.82;;;2.13;;
74059;SDS011;62414;53.436;8.828;2023-06-10T06:21:24;8.23;;;2.40;;
74059;SDS011;62414;53.436;8.828;2023-06-10T06:23:49;11.10;;;2.40;;
74059;SDS011;62414;53.436;8.828;2023-06-10T06:26:14;9.05;;;2.42;;
74059;SDS011;62414;53.436;8.828;2023-06-10T06:28:41;8.77;;;2.30;;
74059;SDS011;62414;53.436;8.828;2023-06-10T06:31:07;10.35;;;2.83;;
74059;SDS011;62414;53.436;8.828;2023-06-10T06:33:32;10.40;;;2.43;;
74059;SDS011;62414;53.436;8.828;2023-06-10T06:35:59;7.75;;;2.30;;
74059;SDS011;62414;53.436;8.828;2023-06-10T06:38:24;8.87;;;2.33;;
74059;SDS011;62414;53.436;8.828;2023-06-10T06:40:51;8.35;;;2.30;;
74059;SDS011;62414;53.436;8.828;2023-06-10T06:43:16;8.70;;;2.50;;
74059;SDS011;62414;53.436;8.828;2023-06-10T06:45:51;7.57;;;2.55;;
74059;SDS011;62414;53.436;8.828;2023-06-10T06:48:17;8.82;;;2.40;;
74059;SDS011;62414;53.436;8.828;2023-06-10T06:50:42;11.03;;;2.70;;
74059;SDS011;62414;53.436;8.828;2023-06-10T06:53:08;6.47;;;2.55;;
74059;SDS011;62414;53.436;8.828;2023-06-10T06:55:33;10.37;;;2.63;;
74059;SDS011;62414;53.436;8.828;2023-06-10T06:57:59;8.20;;;2.67;;
74059;SDS011;62414;53.436;8.828;2023-06-10T07:00:24;9.37;;;2.87;;
74059;SDS011;62414;53.436;8.828;2023-06-10T07:02:51;9.38;;;2.88;;
74059;SDS011;62414;53.436;8.828;2023-06-10T07:05:16;12.52;;;3.10;;
74059;SDS011;62414;53.436;8.828;2023-06-10T07:07:42;8.80;;;2.70;;
74059;SDS011;62414;53.436;8.828;2023-06-10T07:10:07;10.90;;;2.73;;
74059;SDS011;62414;53.436;8.828;2023-06-10T07:12:33;9.57;;;2.90;;
74059;SDS011;62414;53.436;8.828;2023-06-10T07:14:58;11.43;;;3.13;;
74059;SDS011;62414;53.436;8.828;2023-06-10T07:17:24;9.90;;;2.90;;
74059;SDS011;62414;53.436;8.828;2023-06-10T07:19:51;9.43;;;3.23;;
74059;SDS011;62414;53.436;8.828;2023-06-10T07:22:16;7.72;;;3.13;;
74059;SDS011;62414;53.436;8.828;2023-06-10T07:24:42;8.10;;;3.00;;
74059;SDS011;62414;53.436;8.828;2023-06-10T07:27:07;10.10;;;3.07;;
74059;SDS011;62414;53.436;8.828;2023-06-10T07:29:32;7.83;;;3.10;;
74059;SDS011;62414;53.436;8.828;2023-06-10T07:31:58;9.27;;;3.20;;
74059;SDS011;62414;53.436;8.828;2023-06-10T07:34:23;13.47;;;3.50;;
74059;SDS011;62414;53.436;8.828;2023-06-10T07:36:50;9.33;;;3.30;;
74059;SDS011;62414;53.436;8.828;2023-06-10T07:39:15;9.48;;;3.00;;
74059;SDS011;62414;53.436;8.828;2023-06-10T07:41:41;7.30;;;2.90;;
74059;SDS011;62414;53.436;8.828;2023-06-10T07:44:06;9.00;;;3.50;;
74059;SDS011;62414;53.436;8.828;2023-06-10T07:46:32;8.80;;;3.50;;
74059;SDS011;62414;53.436;8.828;2023-06-10T07:48:57;9.57;;;3.23;;
74059;SDS011;62414;53.436;8.828;2023-06-10T07:51:23;8.27;;;3.15;;
74059;SDS011;62414;53.436;8.828;2023-06-10T07:53:49;9.70;;;3.27;;
74059;SDS011;62414;53.436;8.828;2023-06-10T07:56:15;12.65;;;3.72;;
74059;SDS011;62414;53.436;8.828;2023-06-10T07:58:40;8.40;;;3.20;;
74059;SDS011;62414;53.436;8.828;2023-06-10T08:01:06;8.13;;;3.00;;
74059;SDS011;62414;53.436;8.828;2023-06-10T08:03:31;7.77;;;3.13;;
74059;SDS011;62414;53.436;8.828;2023-06-10T08:05:57;8.93;;;3.20;;
74059;SDS011;62414;53.436;8.828;2023-06-10T08:08:22;9.03;;;3.23;;
74059;SDS011;62414;53.436;8.828;2023-06-10T08:10:49;8.82;;;3.10;;
74059;SDS011;62414;53.436;8.828;2023-06-10T08:13:15;8.57;;;3.38;;
74059;SDS011;62414;53.436;8.828;2023-06-10T08:15:41;9.27;;;3.50;;
74059;SDS011;62414;53.436;8.828;2023-06-10T08:18:06;9.60;;;3.10;;
74059;SDS011;62414;53.436;8.828;2023-06-10T08:20:31;11.13;;;2.97;;
74059;SDS011;62414;53.436;8.828;2023-06-10T08:22:57;8.63;;;3.40;;
74059;SDS011;62414;53.436;8.828;2023-06-10T08:25:22;8.30;;;3.10;;
74059;SDS011;62414;53.436;8.828;2023-06-10T08:27:49;10.37;;;3.27;;
74059;SDS011;62414;53.436;8.828;2023-06-10T08:30:15;12.20;;;3.20;;
74059;SDS011;62414;53.436;8.828;2023-06-10T08:32:40;10.13;;;3.50;;
74059;SDS011;62414;53.436;8.828;2023-06-10T08:35:06;8.98;;;3.17;;
74059;SDS011;62414;53.436;8.828;2023-06-10T08:37:31;10.80;;;3.30;;
74059;SDS011;62414;53.436;8.828;2023-06-10T08:39:57;33.92;;;4.30;;
74059;SDS011;62414;53.436;8.828;2023-06-10T08:42:23;9.40;;;3.00;;
74059;SDS011;62414;53.436;8.828;2023-06-10T08:44:52;8.43;;;3.10;;
74059;SDS011;62414;53.436;8.828;2023-06-10T08:47:18;9.05;;;3.35;;
74059;SDS011;62414;53.436;8.828;2023-06-10T08:49:45;8.35;;;3.13;;
74059;SDS011;62414;53.436;8.828;2023-06-10T08:52:11;9.00;;;2.83;;
74059;SDS011;62414;53.436;8.828;2023-06-10T08:54:40;10.55;;;3.08;;
74059;SDS011;62414;53.436;8.828;2023-06-10T08:57:07;7.82;;;2.95;;
74059;SDS011;62414;53.436;8.828;2023-06-10T08:59:33;10.30;;;3.00;;
74059;SDS011;62414;53.436;8.828;2023-06-10T09:02:00;7.45;;;2.80;;
74059;SDS011;62414;53.436;8.828;2023-06-10T09:04:25;8.93;;;2.80;;
74059;SDS011;62414;53.436;8.828;2023-06-10T09:06:52;8.10;;;2.65;;
74059;SDS011;62414;53.436;8.828;2023-06-10T09:09:18;9.02;;;3.10;;
74059;SDS011;62414;53.436;8.828;2023-06-10T09:11:44;6.70;;;2.70;;
74059;SDS011;62414;53.436;8.828;2023-06-10T09:14:09;8.27;;;3.00;;
74059;SDS011;62414;53.436;8.828;2023-06-10T09:16:35;10.47;;;3.00;;
74059;SDS011;62414;53.436;8.828;2023-06-10T09:19:02;7.88;;;3.20;;
74059;SDS011;62414;53.436;8.828;2023-06-10T09:21:27;6.55;;;2.80;;
74059;SDS011;62414;53.436;8.828;2023-06-10T09:23:53;7.83;;;2.77;;
74059;SDS011;62414;53.436;8.828;2023-06-10T09:26:18;7.65;;;2.58;;
74059;SDS011;62414;53.436;8.828;2023-06-10T09:28:44;9.03;;;2.70;;
74059;SDS011;62414;53.436;8.828;2023-06-10T09:31:11;6.65;;;2.75;;
74059;SDS011;62414;53.436;8.828;2023-06-10T09:33:37;6.38;;;2.65;;
74059;SDS011;62414;53.436;8.828;2023-06-10T09:36:04;6.83;;;2.50;;
74059;SDS011;62414;53.436;8.828;2023-06-10T09:38:31;9.40;;;2.83;;
74059;SDS011;62414;53.436;8.828;2023-06-10T09:40:57;8.75;;;2.90;;
74059;SDS011;62414;53.436;8.828;2023-06-10T09:43:23;8.05;;;2.60;;
74059;SDS011;62414;53.436;8.828;2023-06-10T09:46:04;10.73;;;3.40;;
74059;SDS011;62414;53.436;8.828;2023-06-10T09:48:29;9.98;;;3.08;;
74059;SDS011;62414;53.436;8.828;2023-06-10T09:50:54;6.13;;;2.60;;
74059;SDS011;62414;53.436;8.828;2023-06-10T09:53:21;6.50;;;2.50;;
74059;SDS011;62414;53.436;8.828;2023-06-10T09:55:47;8.75;;;2.40;;
74059;SDS011;62414;53.436;8.828;2023-06-10T09:58:12;6.70;;;2.63;;
74059;SDS011;62414;53.436;8.828;2023-06-10T10:00:37;7.50;;;2.50;;
74059;SDS011;62414;53.436;8.828;2023-06-10T10:03:03;7.80;;;2.40;;
74059;SDS011;62414;53.436;8.828;2023-06-10T10:05:28;6.87;;;2.60;;
74059;SDS011;62414;53.436;8.828;2023-06-10T10:07:54;6.33;;;2.37;;
74059;SDS011;62414;53.436;8.828;2023-06-10T10:10:21;6.90;;;2.50;;
74059;SDS011;62414;53.436;8.828;2023-06-10T10:12:46;8.67;;;2.40;;
74059;SDS011;62414;53.436;8.828;2023-06-10T10:15:13;6.45;;;2.40;;
74059;SDS011;62414;53.436;8.828;2023-06-10T10:17:40;8.65;;;2.45;;
74059;SDS011;62414;53.436;8.828;2023-06-10T10:20:06;7.47;;;2.60;;
74059;SDS011;62414;53.436;8.828;2023-06-10T10:22:35;8.93;;;2.70;;
74059;SDS011;62414;53.436;8.828;2023-06-10T10:25:04;6.72;;;2.20;;
74059;SDS011;62414;53.436;8.828;2023-06-10T10:27:35;7.55;;;2.40;;
74059;SDS011;62414;53.436;8.828;2023-06-10T10:30:04;6.97;;;2.30;;
74059;SDS011;62414;53.436;8.828;2023-06-10T10:32:32;5.87;;;2.30;;
74059;SDS011;62414;53.436;8.828;2023-06-10T10:35:02;7.57;;;2.35;;
74059;SDS011;62414;53.436;8.828;2023-06-10T10:37:30;8.40;;;2.50;;
74059;SDS011;62414;53.436;8.828;2023-06-10T10:39:56;7.27;;;2.30;;
74059;SDS011;62414;53.436;8.828;2023-06-10T10:42:22;6.13;;;2.40;;
74059;SDS011;62414;53.436;8.828;2023-06-10T10:44:49;6.63;;;2.25;;
74059;SDS011;62414;53.436;8.828;2023-06-10T10:47:15;6.77;;;2.33;;
74059;SDS011;62414;53.436;8.828;2023-06-10T10:49:43;6.88;;;2.40;;
74059;SDS011;62414;53.436;8.828;2023-06-10T10:52:11;7.32;;;2.22;;
74059;SDS011;62414;53.436;8.828;2023-06-10T10:54:37;8.40;;;2.20;;
74059;SDS011;62414;53.436;8.828;2023-06-10T10:57:15;6.38;;;2.00;;
74059;SDS011;62414;53.436;8.828;2023-06-10T10:59:45;6.03;;;2.20;;
74059;SDS011;62414;53.436;8.828;2023-06-10T11:02:16;5.05;;;2.00;;
74059;SDS011;62414;53.436;8.828;2023-06-10T11:04:44;7.47;;;2.20;;
74059;SDS011;62414;53.436;8.828;2023-06-10T11:07:10;5.63;;;2.13;;
74059;SDS011;62414;53.436;8.828;2023-06-10T11:09:35;6.50;;;2.30;;
74059;SDS011;62414;53.436;8.828;2023-06-10T11:12:01;6.13;;;2.00;;
74059;SDS011;62414;53.436;8.828;2023-06-10T11:14:26;6.43;;;2.30;;
74059;SDS011;62414;53.436;8.828;2023-06-10T11:16:52;6.32;;;2.30;;
74059;SDS011;62414;53.436;8.828;2023-06-10T11:19:32;6.30;;;2.20;;
74059;SDS011;62414;53.436;8.828;2023-06-10T11:21:58;5.82;;;2.20;;
74059;SDS011;62414;53.436;8.828;2023-06-10T11:24:24;6.57;;;2.28;;
74059;SDS011;62414;53.436;8.828;2023-06-10T11:26:49;5.93;;;2.10;;
74059;SDS011;62414;53.436;8.828;2023-06-10T11:29:15;6.10;;;2.10;;
74059;SDS011;62414;53.436;8.828;2023-06-10T11:31:41;5.70;;;1.90;;
74059;SDS011;62414;53.436;8.828;2023-06-10T11:34:08;7.45;;;2.00;;
74059;SDS011;62414;53.436;8.828;2023-06-10T11:36:36;5.78;;;2.15;;
74059;SDS011;62414;53.436;8.828;2023-06-10T11:39:03;6.90;;;2.08;;
74059;SDS011;62414;53.436;8.828;2023-06-10T11:41:30;7.17;;;2.27;;
74059;SDS011;62414;53.436;8.828;2023-06-10T11:43:56;7.63;;;2.28;;
74059;SDS011;62414;53.436;8.828;2023-06-10T11:46:22;6.53;;;2.35;;
74059;SDS011;62414;53.436;8.828;2023-06-10T11:48:51;6.10;;;2.17;;
74059;SDS011;62414;53.436;8.828;2023-06-10T11:51:16;5.15;;;2.10;;
74059;SDS011;62414;53.436;8.828;2023-06-10T11:53:44;7.53;;;2.37;;
74059;SDS011;62414;53.436;8.828;2023-06-10T11:56:10;5.35;;;2.30;;
74059;SDS011;62414;53.436;8.828;2023-06-10T11:58:35;5.63;;;2.03;;
74059;SDS011;62414;53.436;8.828;2023-06-10T12:01:01;7.97;;;2.60;;
74059;SDS011;62414;53.436;8.828;2023-06-10T12:03:26;6.20;;;2.30;;
74059;SDS011;62414;53.436;8.828;2023-06-10T12:05:56;5.53;;;2.50;;
74059;SDS011;62414;53.436;8.828;2023-06-10T12:08:22;4.93;;;2.40;;
74059;SDS011;62414;53.436;8.828;2023-06-10T12:10:49;4.93;;;2.33;;
74059;SDS011;62414;53.436;8.828;2023-06-10T12:13:15;5.03;;;2.40;;
74059;SDS011;62414;53.436;8.828;2023-06-10T12:15:40;5.05;;;2.35;;
74059;SDS011;62414;53.436;8.828;2023-06-10T12:18:06;6.63;;;2.30;;
74059;SDS011;62414;53.436;8.828;2023-06-10T12:20:31;5.97;;;2.60;;
74059;SDS011;62414;53.436;8.828;2023-06-10T12:22:57;6.35;;;2.70;;
74059;SDS011;62414;53.436;8.828;2023-06-10T12:25:26;5.33;;;2.43;;
74059;SDS011;62414;53.436;8.828;2023-06-10T12:27:54;5.82;;;2.50;;
74059;SDS011;62414;53.436;8.828;2023-06-10T12:30:20;5.68;;;2.45;;
74059;SDS011;62414;53.436;8.828;2023-06-10T12:32:47;5.30;;;2.42;;
74059;SDS011;62414;53.436;8.828;2023-06-10T12:35:15;5.80;;;2.50;;
74059;SDS011;62414;53.436;8.828;2023-06-10T12:37:41;5.22;;;2.50;;
74059;SDS011;62414;53.436;8.828;2023-06-10T12:40:07;6.47;;;2.47;;
74059;SDS011;62414;53.436;8.828;2023-06-10T12:42:34;6.50;;;2.50;;
74059;SDS011;62414;53.436;8.828;2023-06-10T12:45:01;5.88;;;2.50;;
74059;SDS011;62414;53.436;8.828;2023-06-10T12:47:30;6.93;;;2.35;;
74059;SDS011;62414;53.436;8.828;2023-06-10T12:49:56;5.82;;;2.40;;
74059;SDS011;62414;53.436;8.828;2023-06-10T12:52:22;4.57;;;2.43;;
74059;SDS011;62414;53.436;8.828;2023-06-10T12:54:47;4.95;;;2.50;;
74059;SDS011;62414;53.436;8.828;2023-06-10T12:57:13;6.33;;;2.43;;
74059;SDS011;62414;53.436;8.828;2023-06-10T12:59:38;6.17;;;2.60;;
74059;SDS011;62414;53.436;8.828;2023-06-10T13:02:05;6.27;;;2.70;;
74059;SDS011;62414;53.436;8.828;2023-06-10T13:04:30;6.43;;;2.60;;
74059;SDS011;62414;53.436;8.828;2023-06-10T13:06:56;4.97;;;2.50;;
74059;SDS011;62414;53.436;8.828;2023-06-10T13:09:21;4.53;;;2.60;;
74059;SDS011;62414;53.436;8.828;2023-06-10T13:11:47;4.53;;;2.57;;
74059;SDS011;62414;53.436;8.828;2023-06-10T13:14:12;6.97;;;3.03;;
74059;SDS011;62414;53.436;8.828;2023-06-10T13:16:38;5.13;;;3.00;;
74059;SDS011;62414;53.436;8.828;2023-06-10T13:19:04;6.90;;;2.80;;
74059;SDS011;62414;53.436;8.828;2023-06-10T13:21:31;4.75;;;2.65;;
74059;SDS011;62414;53.436;8.828;2023-06-10T13:23:57;6.17;;;2.87;;
74059;SDS011;62414;53.436;8.828;2023-06-10T13:26:22;5.40;;;3.10;;
74059;SDS011;62414;53.436;8.828;2023-06-10T13:28:47;5.53;;;2.70;;
74059;SDS011;62414;53.436;8.828;2023-06-10T13:31:13;5.50;;;2.90;;
74059;SDS011;62414;53.436;8.828;2023-06-10T13:33:38;5.60;;;3.42;;
74059;SDS011;62414;53.436;8.828;2023-06-10T13:36:05;7.20;;;3.40;;
74059;SDS011;62414;53.436;8.828;2023-06-10T13:38:31;6.50;;;3.70;;
74059;SDS011;62414;53.436;8.828;2023-06-10T13:40:56;8.30;;;3.60;;
74059;SDS011;62414;53.436;8.828;2023-06-10T13:43:22;7.13;;;3.40;;
74059;SDS011;62414;53.436;8.828;2023-06-10T13:45:47;6.67;;;3.40;;
74059;SDS011;62414;53.436;8.828;2023-06-10T13:48:12;6.50;;;3.60;;
74059;SDS011;62414;53.436;8.828;2023-06-10T13:50:38;6.53;;;3.50;;
74059;SDS011;62414;53.436;8.828;2023-06-10T13:53:05;6.40;;;3.60;;
74059;SDS011;62414;53.436;8.828;2023-06-10T13:55:30;5.53;;;3.65;;
74059;SDS011;62414;53.436;8.828;2023-06-10T13:57:56;5.80;;;3.90;;
74059;SDS011;62414;53.436;8.828;2023-06-10T14:00:21;7.63;;;4.00;;
74059;SDS011;62414;53.436;8.828;2023-06-10T14:02:46;5.70;;;3.70;;
74059;SDS011;62414;53.436;8.828;2023-06-10T14:05:12;7.33;;;4.20;;
74059;SDS011;62414;53.436;8.828;2023-06-10T14:07:37;6.10;;;3.97;;
74059;SDS011;62414;53.436;8.828;2023-06-10T14:10:05;7.37;;;4.50;;
74059;SDS011;62414;53.436;8.828;2023-06-10T14:12:31;6.93;;;4.60;;
74059;SDS011;62414;53.436;8.828;2023-06-10T14:14:56;7.87;;;4.03;;
74059;SDS011;62414;53.436;8.828;2023-06-10T14:17:21;7.70;;;4.50;;
74059;SDS011;62414;53.436;8.828;2023-06-10T14:19:47;6.37;;;4.10;;
74059;SDS011;62414;53.436;8.828;2023-06-10T14:22:12;6.85;;;4.10;;
74059;SDS011;62414;53.436;8.828;2023-06-10T14:24:38;7.90;;;4.13;;
74059;SDS011;62414;53.436;8.828;2023-06-10T14:27:05;9.23;;;4.40;;
74059;SDS011;62414;53.436;8.828;2023-06-10T14:29:31;7.60;;;4.50;;
74059;SDS011;62414;53.436;8.828;2023-06-10T14:31:56;6.47;;;4.50;;
74059;SDS011;62414;53.436;8.828;2023-06-10T14:34:21;6.63;;;4.30;;
74059;SDS011;62414;53.436;8.828;2023-06-10T14:36:47;8.30;;;4.32;;